sensor_id;sensor_type;location;lat;lon;timestamp;temperature;humidity
4054;DHT22;2042;47.956;9.222;2022-09-09T00:04:41;8.80;3.70
4054;DHT22;2042;47.956;9.222;2022-09-09T00:13:18;8.70;2.50
4054;DHT22;2042;47.956;9.222;2022-09-09T00:16:43;8.70;2.50
4054;DHT22;2042;47.956;9.222;2022-09-09T00:21:46;8.70;4.30
4054;DHT22;2042;47.956;9.222;2022-09-09T00:24:27;8.60;3.90
4054;DHT22;2042;47.956;9.222;2022-09-09T00:27:11;8.60;3.60
4054;DHT22;2042;47.956;9.222;2022-09-09T00:29:46;8.60;3.70
4054;DHT22;2042;47.956;9.222;2022-09-09T00:32:18;8.60;4.20
4054;DHT22;2042;47.956;9.222;2022-09-09T00:34:56;8.60;4.90
4054;DHT22;2042;47.956;9.222;2022-09-09T00:37:25;8.60;4.60
4054;DHT22;2042;47.956;9.222;2022-09-09T00:39:54;8.60;4.10
4054;DHT22;2042;47.956;9.222;2022-09-09T00:42:31;8.50;3.50
4054;DHT22;2042;47.956;9.222;2022-09-09T00:45:19;8.40;1.60
4054;DHT22;2042;47.956;9.222;2022-09-09T00:47:52;8.30;1.50
4054;DHT22;2042;47.956;9.222;2022-09-09T00:58:28;8.30;2.90
4054;DHT22;2042;47.956;9.222;2022-09-09T01:01:10;8.30;3.60
4054;DHT22;2042;47.956;9.222;2022-09-09T01:03:55;8.30;4.10
4054;DHT22;2042;47.956;9.222;2022-09-09T01:06:34;8.30;3.90
4054;DHT22;2042;47.956;9.222;2022-09-09T01:14:30;8.30;4.80
4054;DHT22;2042;47.956;9.222;2022-09-09T01:28:08;8.70;8.30
4054;DHT22;2042;47.956;9.222;2022-09-09T01:30:38;8.70;7.80
4054;DHT22;2042;47.956;9.222;2022-09-09T01:33:04;8.70;7.50
4054;DHT22;2042;47.956;9.222;2022-09-09T01:38:12;8.60;6.60
4054;DHT22;2042;47.956;9.222;2022-09-09T01:40:38;8.60;6.70
4054;DHT22;2042;47.956;9.222;2022-09-09T01:43:04;8.50;6.20
4054;DHT22;2042;47.956;9.222;2022-09-09T01:45:30;8.50;6.30
4054;DHT22;2042;47.956;9.222;2022-09-09T01:47:56;8.50;6.40
4054;DHT22;2042;47.956;9.222;2022-09-09T01:50:22;8.60;7.70
4054;DHT22;2042;47.956;9.222;2022-09-09T01:52:52;8.70;8.50
4054;DHT22;2042;47.956;9.222;2022-09-09T01:55:28;8.80;8.90
4054;DHT22;2042;47.956;9.222;2022-09-09T02:01:06;9.00;9.20
4054;DHT22;2042;47.956;9.222;2022-09-09T02:03:36;9.00;9.20
4054;DHT22;2042;47.956;9.222;2022-09-09T02:08:50;9.20;9.70
4054;DHT22;2042;47.956;9.222;2022-09-09T02:11:19;9.30;10.30
4054;DHT22;2042;47.956;9.222;2022-09-09T02:13:47;9.40;10.80
4054;DHT22;2042;47.956;9.222;2022-09-09T02:16:26;9.50;11.10
4054;DHT22;2042;47.956;9.222;2022-09-09T02:21:34;9.70;11.40
4054;DHT22;2042;47.956;9.222;2022-09-09T02:24:03;9.80;11.40
4054;DHT22;2042;47.956;9.222;2022-09-09T02:26:31;9.80;10.60
4054;DHT22;2042;47.956;9.222;2022-09-09T02:29:02;9.70;9.70
4054;DHT22;2042;47.956;9.222;2022-09-09T02:31:28;9.70;9.60
4054;DHT22;2042;47.956;9.222;2022-09-09T02:34:00;9.60;9.70
4054;DHT22;2042;47.956;9.222;2022-09-09T02:36:31;9.60;9.70
4054;DHT22;2042;47.956;9.222;2022-09-09T02:38:58;9.60;9.70
4054;DHT22;2042;47.956;9.222;2022-09-09T02:41:34;9.60;10.20
4054;DHT22;2042;47.956;9.222;2022-09-09T02:44:00;9.70;11.10
4054;DHT22;2042;47.956;9.222;2022-09-09T06:00:42;12.40;20.00
4054;DHT22;2042;47.956;9.222;2022-09-09T06:03:11;12.50;20.10
4054;DHT22;2042;47.956;9.222;2022-09-09T06:05:39;12.40;37.50
4054;DHT22;2042;47.956;9.222;2022-09-09T06:08:05;12.40;33.50
4054;DHT22;2042;47.956;9.222;2022-09-09T06:10:30;12.40;36.70
4054;DHT22;2042;47.956;9.222;2022-09-09T06:12:56;12.50;28.90
4054;DHT22;2042;47.956;9.222;2022-09-09T06:15:21;12.90;25.50
4054;DHT22;2042;47.956;9.222;2022-09-09T06:17:47;13.70;26.70
4054;DHT22;2042;47.956;9.222;2022-09-09T06:20:19;14.40;27.70
4054;DHT22;2042;47.956;9.222;2022-09-09T06:22:45;14.50;26.00
4054;DHT22;2042;47.956;9.222;2022-09-09T06:25:14;14.90;13.20
4054;DHT22;2042;47.956;9.222;2022-09-09T06:27:39;12.90;13.70
4054;DHT22;2042;47.956;9.222;2022-09-09T06:30:06;13.60;14.00
4054;DHT22;2042;47.956;9.222;2022-09-09T06:32:33;13.90;18.10
4054;DHT22;2042;47.956;9.222;2022-09-09T06:35:00;13.90;19.30
4054;DHT22;2042;47.956;9.222;2022-09-09T06:39:56;13.50;21.70
4054;DHT22;2042;47.956;9.222;2022-09-09T06:42:22;14.00;17.90
4054;DHT22;2042;47.956;9.222;2022-09-09T06:44:48;14.30;21.60
4054;DHT22;2042;47.956;9.222;2022-09-09T06:49:41;14.10;20.50
4054;DHT22;2042;47.956;9.222;2022-09-09T06:52:08;14.00;22.50
4054;DHT22;2042;47.956;9.222;2022-09-09T06:54:34;14.00;22.50
4054;DHT22;2042;47.956;9.222;2022-09-09T06:57:02;13.90;22.10
4054;DHT22;2042;47.956;9.222;2022-09-09T07:01:56;15.20;28.50
4054;DHT22;2042;47.956;9.222;2022-09-09T07:04:22;15.30;25.20
4054;DHT22;2042;47.956;9.222;2022-09-09T07:06:48;15.90;15.50
4054;DHT22;2042;47.956;9.222;2022-09-09T07:09:16;16.30;9.40
4054;DHT22;2042;47.956;9.222;2022-09-09T07:11:46;16.50;3.60
4054;DHT22;2042;47.956;9.222;2022-09-09T07:14:12;16.40;3.70
4054;DHT22;2042;47.956;9.222;2022-09-09T07:28:56;16.60;1.10
4054;DHT22;2042;47.956;9.222;2022-09-09T07:31:30;16.60;1.00
4054;DHT22;2042;47.956;9.222;2022-09-09T07:33:57;16.50;1.00
4054;DHT22;2042;47.956;9.222;2022-09-09T07:36:51;16.80;1.00
4054;DHT22;2042;47.956;9.222;2022-09-09T07:39:17;16.50;1.60
4054;DHT22;2042;47.956;9.222;2022-09-09T07:41:45;17.00;1.00
4054;DHT22;2042;47.956;9.222;2022-09-09T07:44:22;17.20;1.00
4054;DHT22;2042;47.956;9.222;2022-09-09T08:26:17;23.90;1.00
4054;DHT22;2042;47.956;9.222;2022-09-09T09:12:32;21.00;1.00
4054;DHT22;2042;47.956;9.222;2022-09-09T09:15:00;23.30;1.00
4054;DHT22;2042;47.956;9.222;2022-09-09T09:17:28;26.20;1.00
4054;DHT22;2042;47.956;9.222;2022-09-09T09:19:57;28.00;1.00
4054;DHT22;2042;47.956;9.222;2022-09-09T09:22:39;27.40;1.00
4054;DHT22;2042;47.956;9.222;2022-09-09T09:30:53;26.30;1.00
4054;DHT22;2042;47.956;9.222;2022-09-09T09:33:47;28.00;1.00
4054;DHT22;2042;47.956;9.222;2022-09-09T09:36:12;30.00;1.00
4054;DHT22;2042;47.956;9.222;2022-09-09T09:38:58;30.10;1.00
4054;DHT22;2042;47.956;9.222;2022-09-09T09:41:36;28.60;1.00
4054;DHT22;2042;47.956;9.222;2022-09-09T09:44:03;28.50;1.00
4054;DHT22;2042;47.956;9.222;2022-09-09T09:46:30;28.20;1.00
4054;DHT22;2042;47.956;9.222;2022-09-09T09:49:03;27.00;1.00
4054;DHT22;2042;47.956;9.222;2022-09-09T10:09:29;23.40;1.00
4054;DHT22;2042;47.956;9.222;2022-09-09T10:23:33;27.80;1.00
4054;DHT22;2042;47.956;9.222;2022-09-09T10:28:41;29.10;1.00
4054;DHT22;2042;47.956;9.222;2022-09-09T10:31:21;28.60;1.00
4054;DHT22;2042;47.956;9.222;2022-09-09T10:36:44;30.90;1.00
4054;DHT22;2042;47.956;9.222;2022-09-09T11:05:29;28.90;1.00
4054;DHT22;2042;47.956;9.222;2022-09-09T11:07:59;28.30;1.00
4054;DHT22;2042;47.956;9.222;2022-09-09T11:13:18;29.60;1.00
4054;DHT22;2042;47.956;9.222;2022-09-09T11:15:50;31.80;1.00
4054;DHT22;2042;47.956;9.222;2022-09-09T11:18:21;33.30;1.00
4054;DHT22;2042;47.956;9.222;2022-09-09T11:20:52;32.20;1.00
4054;DHT22;2042;47.956;9.222;2022-09-09T11:23:46;31.40;1.00
4054;DHT22;2042;47.956;9.222;2022-09-09T11:26:36;29.90;1.00
4054;DHT22;2042;47.956;9.222;2022-09-09T11:29:28;27.50;1.00
4054;DHT22;2042;47.956;9.222;2022-09-09T11:37:44;24.10;1.00
4054;DHT22;2042;47.956;9.222;2022-09-09T11:40:19;24.10;1.00
4054;DHT22;2042;47.956;9.222;2022-09-09T11:42:46;24.00;1.00
4054;DHT22;2042;47.956;9.222;2022-09-09T11:45:24;23.90;1.00
4054;DHT22;2042;47.956;9.222;2022-09-09T11:48:00;23.60;1.00
4054;DHT22;2042;47.956;9.222;2022-09-09T11:50:29;23.40;1.00
4054;DHT22;2042;47.956;9.222;2022-09-09T11:55:39;22.90;1.00
4054;DHT22;2042;47.956;9.222;2022-09-09T11:58:06;23.40;1.00
4054;DHT22;2042;47.956;9.222;2022-09-09T12:00:44;23.40;1.00
4054;DHT22;2042;47.956;9.222;2022-09-09T12:06:08;24.10;1.00
4054;DHT22;2042;47.956;9.222;2022-09-09T12:08:35;24.90;1.00
4054;DHT22;2042;47.956;9.222;2022-09-09T12:11:02;26.40;1.00
4054;DHT22;2042;47.956;9.222;2022-09-09T12:13:29;27.60;1.00
4054;DHT22;2042;47.956;9.222;2022-09-09T12:16:00;29.70;1.00
4054;DHT22;2042;47.956;9.222;2022-09-09T12:18:35;31.20;1.00
4054;DHT22;2042;47.956;9.222;2022-09-09T12:24:05;32.30;1.00
4054;DHT22;2042;47.956;9.222;2022-09-09T12:29:26;33.80;1.00
4054;DHT22;2042;47.956;9.222;2022-09-09T12:37:27;34.80;1.00
4054;DHT22;2042;47.956;9.222;2022-09-09T12:42:21;34.10;1.00
4054;DHT22;2042;47.956;9.222;2022-09-09T12:44:59;33.50;1.00
4054;DHT22;2042;47.956;9.222;2022-09-09T12:47:36;33.10;1.00
4054;DHT22;2042;47.956;9.222;2022-09-09T12:50:03;33.20;1.00
4054;DHT22;2042;47.956;9.222;2022-09-09T12:52:32;33.50;1.00
4054;DHT22;2042;47.956;9.222;2022-09-09T12:55:02;33.60;1.00
4054;DHT22;2042;47.956;9.222;2022-09-09T12:57:35;33.90;1.00
4054;DHT22;2042;47.956;9.222;2022-09-09T13:00:22;34.40;1.00
4054;DHT22;2042;47.956;9.222;2022-09-09T13:02:54;35.10;1.00
4054;DHT22;2042;47.956;9.222;2022-09-09T13:05:28;35.00;1.00
4054;DHT22;2042;47.956;9.222;2022-09-09T13:08:04;33.70;1.00
4054;DHT22;2042;47.956;9.222;2022-09-09T13:10:34;31.90;1.00
4054;DHT22;2042;47.956;9.222;2022-09-09T13:13:00;30.80;1.00
4054;DHT22;2042;47.956;9.222;2022-09-09T13:15:28;30.60;1.00
4054;DHT22;2042;47.956;9.222;2022-09-09T13:17:59;30.60;1.00
4054;DHT22;2042;47.956;9.222;2022-09-09T13:20:26;31.20;1.00
4054;DHT22;2042;47.956;9.222;2022-09-09T13:22:54;32.00;1.00
4054;DHT22;2042;47.956;9.222;2022-09-09T13:25:28;32.00;1.00
4054;DHT22;2042;47.956;9.222;2022-09-09T13:27:57;31.00;1.00
4054;DHT22;2042;47.956;9.222;2022-09-09T13:35:55;32.00;1.00
4054;DHT22;2042;47.956;9.222;2022-09-09T13:38:22;32.80;1.00
4054;DHT22;2042;47.956;9.222;2022-09-09T13:40:59;33.30;1.00
4054;DHT22;2042;47.956;9.222;2022-09-09T13:43:44;32.80;1.00
4054;DHT22;2042;47.956;9.222;2022-09-09T13:46:32;33.30;1.00
4054;DHT22;2042;47.956;9.222;2022-09-09T13:49:20;33.40;1.00
4054;DHT22;2042;47.956;9.222;2022-09-09T13:51:49;32.90;1.00
4054;DHT22;2042;47.956;9.222;2022-09-09T13:54:17;32.60;1.00
4054;DHT22;2042;47.956;9.222;2022-09-09T13:56:44;32.70;1.00
4054;DHT22;2042;47.956;9.222;2022-09-09T13:59:12;33.30;1.00
4054;DHT22;2042;47.956;9.222;2022-09-09T14:01:39;33.20;1.00
4054;DHT22;2042;47.956;9.222;2022-09-09T14:04:05;33.10;1.00
4054;DHT22;2042;47.956;9.222;2022-09-09T14:06:32;33.00;1.00
4054;DHT22;2042;47.956;9.222;2022-09-09T14:08:58;32.80;1.00
4054;DHT22;2042;47.956;9.222;2022-09-09T14:11:24;32.60;1.00
4054;DHT22;2042;47.956;9.222;2022-09-09T14:13:50;32.00;1.00
4054;DHT22;2042;47.956;9.222;2022-09-09T14:16:17;31.30;1.00
4054;DHT22;2042;47.956;9.222;2022-09-09T14:18:43;31.20;1.00
4054;DHT22;2042;47.956;9.222;2022-09-09T14:21:09;31.30;1.00
4054;DHT22;2042;47.956;9.222;2022-09-09T14:23:35;31.40;1.00
4054;DHT22;2042;47.956;9.222;2022-09-09T14:26:01;31.60;1.00
4054;DHT22;2042;47.956;9.222;2022-09-09T14:28:26;30.00;1.00
4054;DHT22;2042;47.956;9.222;2022-09-09T14:30:53;29.80;1.00
4054;DHT22;2042;47.956;9.222;2022-09-09T14:33:19;29.90;1.00
4054;DHT22;2042;47.956;9.222;2022-09-09T14:35:45;29.80;1.00
4054;DHT22;2042;47.956;9.222;2022-09-09T14:38:11;30.50;1.00
4054;DHT22;2042;47.956;9.222;2022-09-09T14:40:37;30.50;1.00
4054;DHT22;2042;47.956;9.222;2022-09-09T14:43:04;29.80;1.00
4054;DHT22;2042;47.956;9.222;2022-09-09T14:45:31;29.60;1.00
4054;DHT22;2042;47.956;9.222;2022-09-09T14:47:57;28.90;1.00
4054;DHT22;2042;47.956;9.222;2022-09-09T14:50:23;27.70;1.00
4054;DHT22;2042;47.956;9.222;2022-09-09T14:52:49;27.00;1.00
4054;DHT22;2042;47.956;9.222;2022-09-09T14:55:15;26.50;1.00
4054;DHT22;2042;47.956;9.222;2022-09-09T14:57:41;25.80;1.00
4054;DHT22;2042;47.956;9.222;2022-09-09T15:00:09;25.00;1.00
4054;DHT22;2042;47.956;9.222;2022-09-09T15:02:35;24.30;1.00
4054;DHT22;2042;47.956;9.222;2022-09-09T15:05:01;23.40;1.00
4054;DHT22;2042;47.956;9.222;2022-09-09T15:07:27;23.00;1.00
4054;DHT22;2042;47.956;9.222;2022-09-09T15:12:20;22.40;1.00
4054;DHT22;2042;47.956;9.222;2022-09-09T15:17:12;22.30;1.00
4054;DHT22;2042;47.956;9.222;2022-09-09T15:19:38;22.30;1.00
4054;DHT22;2042;47.956;9.222;2022-09-09T15:22:05;22.60;1.00
4054;DHT22;2042;47.956;9.222;2022-09-09T15:24:32;22.70;1.00
4054;DHT22;2042;47.956;9.222;2022-09-09T15:26:58;22.90;1.00
4054;DHT22;2042;47.956;9.222;2022-09-09T15:34:17;21.60;1.00
4054;DHT22;2042;47.956;9.222;2022-09-09T15:36:44;21.60;1.00
4054;DHT22;2042;47.956;9.222;2022-09-09T15:39:13;21.20;1.00
4054;DHT22;2042;47.956;9.222;2022-09-09T15:41:45;20.90;1.00
4054;DHT22;2042;47.956;9.222;2022-09-09T15:44:12;20.50;1.00
4054;DHT22;2042;47.956;9.222;2022-09-09T15:46:38;20.10;1.00
4054;DHT22;2042;47.956;9.222;2022-09-09T15:51:34;19.40;1.00
4054;DHT22;2042;47.956;9.222;2022-09-09T15:54:00;19.20;1.00
4054;DHT22;2042;47.956;9.222;2022-09-09T15:56:27;19.10;1.00
4054;DHT22;2042;47.956;9.222;2022-09-09T15:58:55;19.10;1.00
4054;DHT22;2042;47.956;9.222;2022-09-09T16:01:20;19.30;1.00
4054;DHT22;2042;47.956;9.222;2022-09-09T16:03:46;19.40;1.00
4054;DHT22;2042;47.956;9.222;2022-09-09T16:06:16;19.70;1.00
4054;DHT22;2042;47.956;9.222;2022-09-09T16:08:44;19.90;1.00
4054;DHT22;2042;47.956;9.222;2022-09-09T16:11:13;20.10;1.00
4054;DHT22;2042;47.956;9.222;2022-09-09T16:13:41;20.10;1.00
4054;DHT22;2042;47.956;9.222;2022-09-09T16:16:12;20.00;1.00
4054;DHT22;2042;47.956;9.222;2022-09-09T16:21:06;19.60;1.00
4054;DHT22;2042;47.956;9.222;2022-09-09T16:23:34;19.30;1.00
4054;DHT22;2042;47.956;9.222;2022-09-09T16:25:59;19.10;1.00
4054;DHT22;2042;47.956;9.222;2022-09-09T16:28:25;18.80;1.00
4054;DHT22;2042;47.956;9.222;2022-09-09T16:30:51;18.60;1.00
4054;DHT22;2042;47.956;9.222;2022-09-09T16:33:17;18.50;1.00
4054;DHT22;2042;47.956;9.222;2022-09-09T16:35:43;18.40;1.00
4054;DHT22;2042;47.956;9.222;2022-09-09T16:38:09;18.30;1.00
4054;DHT22;2042;47.956;9.222;2022-09-09T16:40:36;18.10;1.00
4054;DHT22;2042;47.956;9.222;2022-09-09T16:43:02;18.00;1.00
4054;DHT22;2042;47.956;9.222;2022-09-09T16:45:28;17.80;1.00
4054;DHT22;2042;47.956;9.222;2022-09-09T16:47:55;17.70;1.00
4054;DHT22;2042;47.956;9.222;2022-09-09T16:50:21;17.60;1.00
4054;DHT22;2042;47.956;9.222;2022-09-09T16:52:46;17.40;1.00
4054;DHT22;2042;47.956;9.222;2022-09-09T16:55:12;17.30;1.00
4054;DHT22;2042;47.956;9.222;2022-09-09T16:57:38;17.20;1.00
4054;DHT22;2042;47.956;9.222;2022-09-09T17:00:04;17.10;1.00
4054;DHT22;2042;47.956;9.222;2022-09-09T17:02:32;16.90;1.00
4054;DHT22;2042;47.956;9.222;2022-09-09T17:04:59;16.80;1.00
4054;DHT22;2042;47.956;9.222;2022-09-09T17:07:25;16.60;1.00
4054;DHT22;2042;47.956;9.222;2022-09-09T17:09:50;16.40;1.00
4054;DHT22;2042;47.956;9.222;2022-09-09T17:12:16;16.20;1.00
4054;DHT22;2042;47.956;9.222;2022-09-09T17:14:43;16.00;1.00
4054;DHT22;2042;47.956;9.222;2022-09-09T17:17:08;15.80;1.00
4054;DHT22;2042;47.956;9.222;2022-09-09T17:19:34;15.70;1.00
4054;DHT22;2042;47.956;9.222;2022-09-09T17:21:59;15.50;1.00
4054;DHT22;2042;47.956;9.222;2022-09-09T17:24:29;15.40;1.00
4054;DHT22;2042;47.956;9.222;2022-09-09T17:26:54;15.20;1.00
4054;DHT22;2042;47.956;9.222;2022-09-09T17:29:21;15.10;1.00
4054;DHT22;2042;47.956;9.222;2022-09-09T17:31:47;15.00;1.00
4054;DHT22;2042;47.956;9.222;2022-09-09T17:34:12;14.90;1.00
4054;DHT22;2042;47.956;9.222;2022-09-09T17:36:38;14.90;1.00
4054;DHT22;2042;47.956;9.222;2022-09-09T17:39:05;14.90;1.00
4054;DHT22;2042;47.956;9.222;2022-09-09T17:41:38;14.80;1.00
4054;DHT22;2042;47.956;9.222;2022-09-09T17:44:05;14.80;1.00
4054;DHT22;2042;47.956;9.222;2022-09-09T17:46:34;14.70;1.00
4054;DHT22;2042;47.956;9.222;2022-09-09T17:49:03;14.60;1.00
4054;DHT22;2042;47.956;9.222;2022-09-09T17:51:30;14.50;1.00
4054;DHT22;2042;47.956;9.222;2022-09-09T17:53:59;14.30;1.00
4054;DHT22;2042;47.956;9.222;2022-09-09T17:56:27;14.20;1.00
4054;DHT22;2042;47.956;9.222;2022-09-09T17:58:54;14.10;1.00
4054;DHT22;2042;47.956;9.222;2022-09-09T18:01:28;14.00;1.00
4054;DHT22;2042;47.956;9.222;2022-09-09T18:03:56;13.90;1.00
4054;DHT22;2042;47.956;9.222;2022-09-09T18:06:26;13.80;1.00
4054;DHT22;2042;47.956;9.222;2022-09-09T18:08:55;13.80;1.00
4054;DHT22;2042;47.956;9.222;2022-09-09T18:11:23;13.80;1.00
4054;DHT22;2042;47.956;9.222;2022-09-09T18:13:54;13.80;1.00
4054;DHT22;2042;47.956;9.222;2022-09-09T18:16:21;13.90;1.00
4054;DHT22;2042;47.956;9.222;2022-09-09T18:18:48;13.90;1.00
4054;DHT22;2042;47.956;9.222;2022-09-09T18:21:18;13.90;1.00
4054;DHT22;2042;47.956;9.222;2022-09-09T18:23:45;13.90;1.00
4054;DHT22;2042;47.956;9.222;2022-09-09T18:26:16;14.00;1.00
4054;DHT22;2042;47.956;9.222;2022-09-09T18:31:11;14.00;1.00
4054;DHT22;2042;47.956;9.222;2022-09-09T18:33:38;14.10;1.00
4054;DHT22;2042;47.956;9.222;2022-09-09T18:36:17;14.20;1.00
4054;DHT22;2042;47.956;9.222;2022-09-09T18:38:43;14.30;1.00
4054;DHT22;2042;47.956;9.222;2022-09-09T18:41:17;14.30;1.00
4054;DHT22;2042;47.956;9.222;2022-09-09T18:43:44;14.50;1.00
4054;DHT22;2042;47.956;9.222;2022-09-09T18:46:10;14.50;1.00
4054;DHT22;2042;47.956;9.222;2022-09-09T18:48:37;14.40;1.00
4054;DHT22;2042;47.956;9.222;2022-09-09T18:51:05;14.40;1.00
4054;DHT22;2042;47.956;9.222;2022-09-09T18:53:32;14.30;1.00
4054;DHT22;2042;47.956;9.222;2022-09-09T18:56:05;14.30;1.00
4054;DHT22;2042;47.956;9.222;2022-09-09T18:58:32;14.10;1.00
4054;DHT22;2042;47.956;9.222;2022-09-09T19:00:59;14.00;1.00
4054;DHT22;2042;47.956;9.222;2022-09-09T19:03:26;14.00;1.00
4054;DHT22;2042;47.956;9.222;2022-09-09T19:05:52;13.80;1.00
4054;DHT22;2042;47.956;9.222;2022-09-09T19:08:19;13.60;1.00
4054;DHT22;2042;47.956;9.222;2022-09-09T19:10:48;13.50;1.00
4054;DHT22;2042;47.956;9.222;2022-09-09T19:13:14;13.40;1.00
4054;DHT22;2042;47.956;9.222;2022-09-09T19:15:40;13.20;1.00
4054;DHT22;2042;47.956;9.222;2022-09-09T19:18:06;13.10;1.00
4054;DHT22;2042;47.956;9.222;2022-09-09T19:20:31;12.90;1.00
4054;DHT22;2042;47.956;9.222;2022-09-09T19:22:57;12.70;1.00
4054;DHT22;2042;47.956;9.222;2022-09-09T19:25:24;12.60;1.00
4054;DHT22;2042;47.956;9.222;2022-09-09T19:27:50;12.50;1.00
4054;DHT22;2042;47.956;9.222;2022-09-09T19:30:16;12.30;1.00
4054;DHT22;2042;47.956;9.222;2022-09-09T19:32:42;12.10;1.00
4054;DHT22;2042;47.956;9.222;2022-09-09T19:35:08;12.00;1.00
4054;DHT22;2042;47.956;9.222;2022-09-09T19:37:35;11.80;1.00
4054;DHT22;2042;47.956;9.222;2022-09-09T19:40:02;11.80;1.00
4054;DHT22;2042;47.956;9.222;2022-09-09T19:42:30;11.60;1.00
4054;DHT22;2042;47.956;9.222;2022-09-09T19:44:56;11.50;1.00
4054;DHT22;2042;47.956;9.222;2022-09-09T19:47:22;11.50;1.00
4054;DHT22;2042;47.956;9.222;2022-09-09T19:49:49;11.40;1.00
4054;DHT22;2042;47.956;9.222;2022-09-09T19:52:18;11.30;1.00
4054;DHT22;2042;47.956;9.222;2022-09-09T19:54:44;11.20;1.00
4054;DHT22;2042;47.956;9.222;2022-09-09T19:57:11;11.10;1.00
4054;DHT22;2042;47.956;9.222;2022-09-09T19:59:37;11.00;1.00
4054;DHT22;2042;47.956;9.222;2022-09-09T20:02:02;10.90;1.00
4054;DHT22;2042;47.956;9.222;2022-09-09T20:04:28;10.80;1.00
4054;DHT22;2042;47.956;9.222;2022-09-09T20:06:54;10.70;1.00
4054;DHT22;2042;47.956;9.222;2022-09-09T20:09:20;10.60;1.00
4054;DHT22;2042;47.956;9.222;2022-09-09T20:11:47;10.50;1.00
4054;DHT22;2042;47.956;9.222;2022-09-09T20:14:14;10.50;15.40
4054;DHT22;2042;47.956;9.222;2022-09-09T20:16:41;10.60;17.00
4054;DHT22;2042;47.956;9.222;2022-09-09T20:19:10;10.60;17.20
4054;DHT22;2042;47.956;9.222;2022-09-09T20:21:39;10.60;17.60
4054;DHT22;2042;47.956;9.222;2022-09-09T20:24:07;10.60;17.80
4054;DHT22;2042;47.956;9.222;2022-09-09T20:26:34;10.50;17.90
4054;DHT22;2042;47.956;9.222;2022-09-09T20:29:05;10.50;17.80
4054;DHT22;2042;47.956;9.222;2022-09-09T20:31:34;10.40;17.60
4054;DHT22;2042;47.956;9.222;2022-09-09T20:34:02;10.40;17.90
4054;DHT22;2042;47.956;9.222;2022-09-09T20:36:31;10.30;18.00
4054;DHT22;2042;47.956;9.222;2022-09-09T20:39:00;10.20;18.30
4054;DHT22;2042;47.956;9.222;2022-09-09T20:41:29;10.20;18.20
4054;DHT22;2042;47.956;9.222;2022-09-09T20:43:58;10.10;18.40
4054;DHT22;2042;47.956;9.222;2022-09-09T20:46:28;10.00;18.40
4054;DHT22;2042;47.956;9.222;2022-09-09T20:48:54;10.00;18.30
4054;DHT22;2042;47.956;9.222;2022-09-09T20:51:21;9.90;19.20
4054;DHT22;2042;47.956;9.222;2022-09-09T20:53:56;9.80;19.40
4054;DHT22;2042;47.956;9.222;2022-09-09T20:56:26;9.80;19.90
4054;DHT22;2042;47.956;9.222;2022-09-09T20:58:53;9.70;20.40
4054;DHT22;2042;47.956;9.222;2022-09-09T21:01:20;9.60;21.20
4054;DHT22;2042;47.956;9.222;2022-09-09T21:03:46;9.60;21.40
4054;DHT22;2042;47.956;9.222;2022-09-09T21:06:12;9.50;22.20
4054;DHT22;2042;47.956;9.222;2022-09-09T21:50:20;11.20;1.00
4054;DHT22;2042;47.956;9.222;2022-09-09T21:52:47;11.20;1.00
4054;DHT22;2042;47.956;9.222;2022-09-09T21:57:39;11.10;1.00
4054;DHT22;2042;47.956;9.222;2022-09-09T22:00:07;11.20;1.00
4054;DHT22;2042;47.956;9.222;2022-09-09T22:02:37;11.20;1.00
4054;DHT22;2042;47.956;9.222;2022-09-09T22:05:03;11.20;1.00
4054;DHT22;2042;47.956;9.222;2022-09-09T22:09:56;11.50;9.30
4054;DHT22;2042;47.956;9.222;2022-09-09T22:12:22;11.40;1.00
4054;DHT22;2042;47.956;9.222;2022-09-09T22:14:49;11.50;1.00
4054;DHT22;2042;47.956;9.222;2022-09-09T22:17:18;11.60;1.00
4054;DHT22;2042;47.956;9.222;2022-09-09T22:19:44;11.60;1.00
4054;DHT22;2042;47.956;9.222;2022-09-09T22:22:09;11.60;1.00
4054;DHT22;2042;47.956;9.222;2022-09-09T22:24:35;11.70;1.00
4054;DHT22;2042;47.956;9.222;2022-09-09T22:27:03;11.80;1.00
4054;DHT22;2042;47.956;9.222;2022-09-09T22:29:29;11.70;1.00
4054;DHT22;2042;47.956;9.222;2022-09-09T22:31:56;11.70;1.00
4054;DHT22;2042;47.956;9.222;2022-09-09T22:34:22;11.70;1.00
4054;DHT22;2042;47.956;9.222;2022-09-09T22:36:48;11.70;1.00
4054;DHT22;2042;47.956;9.222;2022-09-09T22:39:15;11.60;1.00
4054;DHT22;2042;47.956;9.222;2022-09-09T22:41:41;11.60;1.00
4054;DHT22;2042;47.956;9.222;2022-09-09T22:44:07;11.50;1.00
4054;DHT22;2042;47.956;9.222;2022-09-09T22:46:35;11.40;1.00
4054;DHT22;2042;47.956;9.222;2022-09-09T22:49:01;11.30;1.00
4054;DHT22;2042;47.956;9.222;2022-09-09T22:51:28;11.20;1.00
4054;DHT22;2042;47.956;9.222;2022-09-09T22:53:54;11.10;1.00
4054;DHT22;2042;47.956;9.222;2022-09-09T22:56:21;11.00;1.00
4054;DHT22;2042;47.956;9.222;2022-09-09T22:58:51;11.00;1.00
4054;DHT22;2042;47.956;9.222;2022-09-09T23:01:19;10.90;1.00
4054;DHT22;2042;47.956;9.222;2022-09-09T23:03:46;10.90;1.00
4054;DHT22;2042;47.956;9.222;2022-09-09T23:06:16;10.90;1.00
4054;DHT22;2042;47.956;9.222;2022-09-09T23:11:13;10.70;1.00
4054;DHT22;2042;47.956;9.222;2022-09-09T23:13:41;10.70;1.00
4054;DHT22;2042;47.956;9.222;2022-09-09T23:16:25;10.60;1.00
4054;DHT22;2042;47.956;9.222;2022-09-09T23:18:52;10.60;1.00
4054;DHT22;2042;47.956;9.222;2022-09-09T23:21:20;10.60;1.00
4054;DHT22;2042;47.956;9.222;2022-09-09T23:23:46;10.70;1.00
4054;DHT22;2042;47.956;9.222;2022-09-09T23:26:14;10.70;1.00
4054;DHT22;2042;47.956;9.222;2022-09-09T23:28:45;10.70;1.00
4054;DHT22;2042;47.956;9.222;2022-09-09T23:31:13;10.60;1.00
4054;DHT22;2042;47.956;9.222;2022-09-09T23:53:15;10.00;2.60
4054;DHT22;2042;47.956;9.222;2022-09-09T23:55:42;9.90;1.00
4054;DHT22;2042;47.956;9.222;2022-09-09T23:58:08;9.80;1.00
